createdAt,value
2017-06-19T00:01:57.118Z,19.70
2017-06-19T00:04:24.594Z,19.70
2017-06-19T00:06:52.104Z,19.70
2017-06-19T00:09:20.350Z,19.60
2017-06-19T00:11:47.823Z,19.60
2017-06-19T00:14:16.081Z,19.70
2017-06-19T00:16:44.335Z,19.70
2017-06-19T00:19:11.826Z,19.70
2017-06-19T00:21:40.079Z,19.60
2017-06-19T00:24:07.580Z,19.60
2017-06-19T00:26:35.053Z,19.60
2017-06-19T00:29:02.546Z,19.60
2017-06-19T00:31:30.799Z,19.40
2017-06-19T00:33:58.314Z,19.40
2017-06-19T00:36:25.790Z,19.40
2017-06-19T00:38:53.266Z,19.40
2017-06-19T00:41:20.759Z,19.30
2017-06-19T00:43:49.065Z,19.30
2017-06-19T00:46:16.558Z,19.30
2017-06-19T00:48:44.038Z,19.20
2017-06-19T00:51:12.303Z,19.20
2017-06-19T00:53:39.794Z,19.20
2017-06-19T00:56:07.283Z,19.30
2017-06-19T00:58:34.761Z,19.20
2017-06-19T01:01:02.254Z,19.20
2017-06-19T01:03:29.740Z,19.10
2017-06-19T01:05:57.231Z,19.00
2017-06-19T01:08:25.474Z,19.00
2017-06-19T01:10:52.970Z,19.00
2017-06-19T01:13:20.471Z,19.00
2017-06-19T01:15:47.951Z,19.00
2017-06-19T01:18:15.443Z,18.90
2017-06-19T01:20:42.914Z,18.90
2017-06-19T01:23:10.417Z,18.90
2017-06-19T01:25:37.901Z,18.80
2017-06-19T01:28:05.414Z,18.80
2017-06-19T01:30:32.892Z,18.70
2017-06-19T01:33:00.392Z,18.80
2017-06-19T01:35:27.877Z,18.70
2017-06-19T01:37:55.384Z,18.70
2017-06-19T01:40:22.869Z,18.60
2017-06-19T01:42:50.347Z,18.40
2017-06-19T01:45:17.859Z,18.30
2017-06-19T01:47:45.359Z,18.30
2017-06-19T01:50:12.851Z,18.40
2017-06-19T01:52:40.328Z,18.40
2017-06-19T01:55:07.829Z,18.50
2017-06-19T01:57:35.314Z,18.50
2017-06-19T02:00:02.809Z,18.40
2017-06-19T02:02:30.293Z,18.50
2017-06-19T02:04:57.790Z,18.50
2017-06-19T02:07:25.294Z,18.40
2017-06-19T02:09:52.794Z,18.30
2017-06-19T02:12:20.271Z,18.20
2017-06-19T02:14:47.786Z,18.20
2017-06-19T02:17:16.031Z,18.30
2017-06-19T02:19:43.518Z,18.30
2017-06-19T02:22:11.014Z,18.10
2017-06-19T02:24:38.487Z,18.00
2017-06-19T02:27:05.990Z,18.10
2017-06-19T02:29:33.473Z,18.20
2017-06-19T02:32:00.972Z,18.10
2017-06-19T02:34:28.454Z,18.10
2017-06-19T02:36:55.962Z,18.20
2017-06-19T02:39:23.435Z,18.20
2017-06-19T02:41:50.935Z,18.20
2017-06-19T02:44:18.411Z,18.20
2017-06-19T02:46:45.931Z,18.10
2017-06-19T02:49:14.186Z,18.00
2017-06-19T02:51:42.425Z,18.00
2017-06-19T02:54:09.915Z,17.90
2017-06-19T02:56:38.169Z,17.90
2017-06-19T02:59:05.667Z,17.90
2017-06-19T03:01:33.147Z,17.90
2017-06-19T03:04:00.658Z,17.90
2017-06-19T03:06:28.135Z,17.80
2017-06-19T03:08:55.635Z,17.70
2017-06-19T03:11:23.111Z,17.70
2017-06-19T03:13:50.599Z,17.70
2017-06-19T03:16:18.076Z,17.70
2017-06-19T03:18:45.575Z,17.70
2017-06-19T03:21:13.050Z,17.70
2017-06-19T03:23:41.324Z,17.70
2017-06-19T03:26:09.595Z,17.70
2017-06-19T03:28:37.857Z,17.60
2017-06-19T03:31:05.334Z,17.60
2017-06-19T03:33:32.811Z,17.70
2017-06-19T03:36:00.304Z,17.70
2017-06-19T03:38:27.778Z,17.60
2017-06-19T03:40:56.041Z,17.60
2017-06-19T03:43:23.521Z,17.60
2017-06-19T03:45:51.020Z,17.40
2017-06-19T03:48:18.495Z,17.40
2017-06-19T03:50:45.994Z,17.50
2017-06-19T03:53:13.470Z,17.40
2017-06-19T03:55:40.982Z,17.40
2017-06-19T03:58:09.222Z,17.50
2017-06-19T04:00:36.722Z,17.50
2017-06-19T04:03:04.215Z,17.60
2017-06-19T04:05:31.697Z,17.60
2017-06-19T04:07:59.209Z,17.80
2017-06-19T04:10:27.716Z,17.70
2017-06-19T04:12:55.254Z,17.70
2017-06-19T04:15:22.747Z,17.60
2017-06-19T04:17:50.243Z,17.70
2017-06-19T04:20:17.719Z,17.80
2017-06-19T04:22:45.220Z,17.80
2017-06-19T04:25:12.707Z,17.90
2017-06-19T04:27:40.211Z,17.90
2017-06-19T04:30:07.686Z,18.00
2017-06-19T04:32:35.940Z,18.20
2017-06-19T04:35:03.440Z,18.10
2017-06-19T04:37:30.923Z,18.10
2017-06-19T04:39:58.418Z,18.20
2017-06-19T04:42:26.671Z,18.40
2017-06-19T04:44:54.180Z,18.40
2017-06-19T04:47:21.671Z,18.40
2017-06-19T04:49:49.158Z,18.40
2017-06-19T04:52:16.630Z,18.50
2017-06-19T04:54:44.126Z,18.50
2017-06-19T04:57:11.603Z,18.50
2017-06-19T04:59:39.119Z,18.60
2017-06-19T05:02:06.603Z,18.70
2017-06-19T05:04:34.075Z,18.70
2017-06-19T05:07:01.575Z,18.80
2017-06-19T05:09:29.056Z,18.90
2017-06-19T05:11:56.554Z,18.80
2017-06-19T05:14:24.804Z,18.80
2017-06-19T05:16:52.294Z,18.70
2017-06-19T05:19:20.540Z,18.90
2017-06-19T05:21:48.247Z,18.90
2017-06-19T05:24:15.725Z,18.90
2017-06-19T05:26:43.227Z,18.90
2017-06-19T05:29:10.698Z,18.90
2017-06-19T05:31:38.197Z,19.00
2017-06-19T05:34:05.678Z,19.10
2017-06-19T05:36:33.178Z,19.30
2017-06-19T05:39:00.654Z,19.20
2017-06-19T05:41:28.134Z,19.20
2017-06-19T05:43:55.628Z,19.30
2017-06-19T05:46:23.111Z,19.20
2017-06-19T05:48:50.615Z,19.40
2017-06-19T05:51:18.087Z,19.40
2017-06-19T05:53:45.587Z,19.50
2017-06-19T05:56:13.059Z,19.50
2017-06-19T05:58:40.547Z,19.50
2017-06-19T06:01:08.791Z,19.90
2017-06-19T06:03:36.275Z,19.80
2017-06-19T06:06:03.782Z,20.00
2017-06-19T06:08:31.263Z,19.80
2017-06-19T06:10:58.750Z,19.80
2017-06-19T06:13:26.294Z,20.00
2017-06-19T06:15:53.795Z,20.50
2017-06-19T06:18:21.258Z,21.90
2017-06-19T06:20:48.746Z,23.80
2017-06-19T06:23:16.987Z,26.00
2017-06-19T06:25:45.767Z,25.90
2017-06-19T06:28:13.234Z,27.30
2017-06-19T06:30:40.728Z,28.40
2017-06-19T06:33:08.203Z,29.10
2017-06-19T06:35:35.718Z,29.30
2017-06-19T06:38:03.200Z,29.90
2017-06-19T06:40:30.671Z,28.60
2017-06-19T06:42:58.164Z,29.10
2017-06-19T06:45:26.562Z,29.90
2017-06-19T06:47:54.816Z,30.70
2017-06-19T06:50:22.291Z,30.60
2017-06-19T06:52:50.546Z,29.10
2017-06-19T06:55:18.023Z,29.10
2017-06-19T06:57:46.274Z,29.50
2017-06-19T07:00:13.746Z,29.50
2017-06-19T07:02:42.002Z,30.90
2017-06-19T07:05:09.475Z,30.90
2017-06-19T07:07:37.738Z,30.30
2017-06-19T07:10:05.218Z,30.20
2017-06-19T07:12:32.748Z,30.20
2017-06-19T07:15:01.011Z,30.70
2017-06-19T07:17:28.491Z,30.60
2017-06-19T07:19:55.991Z,30.90
2017-06-19T07:22:23.470Z,30.90
2017-06-19T07:24:50.962Z,29.70
2017-06-19T07:27:18.438Z,31.30
2017-06-19T07:29:45.947Z,31.20
2017-06-19T07:32:13.424Z,32.50
2017-06-19T07:34:41.702Z,32.80
2017-06-19T07:37:09.179Z,32.80
2017-06-19T07:39:36.658Z,33.70
2017-06-19T07:42:04.146Z,31.50
2017-06-19T07:44:32.391Z,31.60
2017-06-19T07:46:59.883Z,31.50
2017-06-19T07:49:27.370Z,32.70
2017-06-19T07:51:54.858Z,33.10
2017-06-19T07:54:22.336Z,33.70
2017-06-19T07:56:49.846Z,33.60
2017-06-19T07:59:17.318Z,33.10
2017-06-19T08:01:44.811Z,33.90
2017-06-19T08:04:12.286Z,34.40
2017-06-19T08:06:39.833Z,35.30
2017-06-19T08:09:07.304Z,33.90
2017-06-19T08:11:34.791Z,34.60
2017-06-19T08:14:02.278Z,34.50
2017-06-19T08:16:29.747Z,33.20
2017-06-19T08:18:57.243Z,33.80
2017-06-19T08:21:30.315Z,33.70
2017-06-19T08:23:57.807Z,32.70
2017-06-19T08:26:25.278Z,32.90
2017-06-19T08:28:53.538Z,33.10
2017-06-19T08:31:21.011Z,33.10
2017-06-19T08:33:49.272Z,35.40
2017-06-19T08:36:16.747Z,35.40
2017-06-19T08:38:45.014Z,35.40
2017-06-19T08:41:13.262Z,35.00
2017-06-19T08:43:40.738Z,34.90
2017-06-19T08:46:08.997Z,34.40
2017-06-19T08:48:36.482Z,34.40
2017-06-19T08:51:03.971Z,33.20
2017-06-19T08:53:31.448Z,32.50
2017-06-19T08:55:58.943Z,32.20
2017-06-19T08:58:26.411Z,33.60
2017-06-19T09:00:53.902Z,33.40
2017-06-19T09:03:21.388Z,33.90
2017-06-19T09:05:49.642Z,33.80
2017-06-19T09:08:17.137Z,33.80
2017-06-19T09:10:44.628Z,35.60
2017-06-19T09:13:12.107Z,35.30
2017-06-19T09:15:39.619Z,35.10
2017-06-19T09:18:07.111Z,33.50
2017-06-19T09:20:34.591Z,34.00
2017-06-19T09:23:02.858Z,34.20
2017-06-19T09:25:30.335Z,34.20
2017-06-19T09:27:57.824Z,35.10
2017-06-19T09:30:25.305Z,35.60
2017-06-19T09:32:52.799Z,35.10
2017-06-19T09:35:20.279Z,33.70
2017-06-19T09:37:47.778Z,34.70
2017-06-19T09:40:16.031Z,34.60
2017-06-19T09:42:43.523Z,34.60
2017-06-19T09:45:10.995Z,35.00
2017-06-19T09:47:38.503Z,34.60
2017-06-19T09:50:05.976Z,34.50
2017-06-19T09:52:34.218Z,34.80
2017-06-19T09:55:01.951Z,34.80
2017-06-19T09:57:29.436Z,36.00
2017-06-19T09:59:56.932Z,35.30
2017-06-19T10:02:24.402Z,35.30
2017-06-19T10:04:51.886Z,35.90
2017-06-19T10:07:19.370Z,34.90
2017-06-19T10:09:46.878Z,34.00
2017-06-19T10:12:14.350Z,33.90
2017-06-19T10:14:41.818Z,34.80
2017-06-19T10:17:09.315Z,35.00
2017-06-19T10:19:36.782Z,34.20
2017-06-19T10:22:04.338Z,33.60
2017-06-19T10:24:31.818Z,34.60
2017-06-19T10:26:59.318Z,34.40
2017-06-19T10:29:27.569Z,34.80
2017-06-19T10:31:55.058Z,34.90
2017-06-19T10:34:22.540Z,35.40
2017-06-19T10:36:50.035Z,35.00
2017-06-19T10:39:17.511Z,35.10
2017-06-19T10:41:45.786Z,34.90
2017-06-19T10:44:14.031Z,35.30
2017-06-19T10:46:41.506Z,35.30
2017-06-19T10:49:08.998Z,34.70
2017-06-19T10:51:36.468Z,34.80
2017-06-19T10:54:03.966Z,34.30
2017-06-19T10:56:31.477Z,32.20
2017-06-19T10:58:58.971Z,33.20
2017-06-19T11:01:26.454Z,33.90
2017-06-19T11:03:53.942Z,35.10
2017-06-19T11:06:21.454Z,35.20
2017-06-19T11:08:49.715Z,33.20
2017-06-19T11:11:17.190Z,33.20
2017-06-19T11:13:45.462Z,33.20
2017-06-19T11:16:12.939Z,33.10
2017-06-19T11:18:40.406Z,33.60
2017-06-19T11:21:07.903Z,33.90
2017-06-19T11:23:35.372Z,33.90
2017-06-19T11:26:02.867Z,34.70
2017-06-19T11:28:30.342Z,35.30
2017-06-19T11:30:57.834Z,34.80
2017-06-19T11:33:26.083Z,34.30
2017-06-19T11:35:53.574Z,34.20
2017-06-19T11:38:21.052Z,34.30
2017-06-19T11:40:48.547Z,34.50
2017-06-19T11:43:16.032Z,34.80
2017-06-19T11:45:44.303Z,34.70
2017-06-19T11:48:11.785Z,34.70
2017-06-19T11:50:39.287Z,34.00
2017-06-19T11:53:06.779Z,33.60
2017-06-19T11:55:34.251Z,33.60
2017-06-19T11:58:01.740Z,33.20
2017-06-19T12:00:29.223Z,33.50
2017-06-19T12:02:57.486Z,33.90
2017-06-19T12:05:24.962Z,33.90
2017-06-19T12:07:52.450Z,33.10
2017-06-19T12:10:19.923Z,33.50
2017-06-19T12:12:47.419Z,33.60
2017-06-19T12:15:15.667Z,33.80
2017-06-19T12:17:43.180Z,33.80
2017-06-19T12:20:10.652Z,33.10
2017-06-19T12:22:38.135Z,33.40
2017-06-19T12:25:05.627Z,33.90
2017-06-19T12:27:33.111Z,34.40
2017-06-19T12:30:01.537Z,34.40
2017-06-19T12:32:29.779Z,33.80
2017-06-19T12:34:57.271Z,33.80
2017-06-19T12:37:25.511Z,34.20
2017-06-19T12:39:53.001Z,34.10
2017-06-19T12:42:20.491Z,33.70
2017-06-19T12:44:47.980Z,33.80
2017-06-19T12:47:15.463Z,34.20
2017-06-19T12:49:43.727Z,34.20
2017-06-19T12:52:11.966Z,34.00
2017-06-19T12:54:39.440Z,34.00
2017-06-19T12:57:06.945Z,33.20
2017-06-19T12:59:34.431Z,33.10
2017-06-19T13:02:01.923Z,33.00
2017-06-19T13:04:30.167Z,33.60
2017-06-19T13:06:57.664Z,33.60
2017-06-19T13:09:25.138Z,33.60
2017-06-19T13:11:52.628Z,33.90
2017-06-19T13:14:20.107Z,34.00
2017-06-19T13:16:48.364Z,33.50
2017-06-19T13:19:15.854Z,33.50
2017-06-19T13:21:43.347Z,33.60
2017-06-19T13:24:10.831Z,33.80
2017-06-19T13:26:38.339Z,33.70
2017-06-19T13:29:05.816Z,33.60
2017-06-19T13:31:33.290Z,33.70
2017-06-19T13:34:00.789Z,33.40
2017-06-19T13:36:28.267Z,33.80
2017-06-19T13:38:55.759Z,34.40
2017-06-19T13:41:23.232Z,34.40
2017-06-19T13:43:51.491Z,34.80
2017-06-19T13:46:19.746Z,34.30
2017-06-19T13:48:47.240Z,34.30
2017-06-19T13:51:15.478Z,33.30
2017-06-19T13:53:42.967Z,33.30
2017-06-19T13:56:10.447Z,33.20
2017-06-19T13:58:37.958Z,33.20
2017-06-19T14:01:06.214Z,34.10
2017-06-19T14:03:33.702Z,34.10
2017-06-19T14:06:01.214Z,33.80
2017-06-19T14:08:28.687Z,34.30
2017-06-19T14:10:56.176Z,34.50
2017-06-19T14:13:23.650Z,34.40
2017-06-19T14:15:51.145Z,34.40
2017-06-19T14:18:18.632Z,34.30
2017-06-19T14:20:46.120Z,34.70
2017-06-19T14:23:13.599Z,34.90
2017-06-19T14:25:41.087Z,34.60
2017-06-19T14:28:08.575Z,34.80
2017-06-19T14:30:36.069Z,35.00
2017-06-19T14:33:03.549Z,35.00
2017-06-19T14:35:31.799Z,33.50
2017-06-19T14:37:59.283Z,33.50
2017-06-19T14:40:26.763Z,33.90
2017-06-19T14:42:54.254Z,34.60
2017-06-19T14:45:21.738Z,35.00
2017-06-19T14:47:50.001Z,34.40
2017-06-19T14:50:17.475Z,34.40
2017-06-19T14:52:44.974Z,33.80
2017-06-19T14:55:12.451Z,33.60
2017-06-19T14:57:39.954Z,33.40
2017-06-19T15:00:07.436Z,33.10
2017-06-19T15:02:34.934Z,33.00
2017-06-19T15:05:03.181Z,33.40
2017-06-19T15:07:30.663Z,33.40
2017-06-19T15:09:58.933Z,33.00
2017-06-19T15:12:27.178Z,33.10
2017-06-19T15:14:54.670Z,33.10
2017-06-19T15:17:22.920Z,31.70
2017-06-19T15:19:50.410Z,31.60
2017-06-19T15:22:23.531Z,31.30
2017-06-19T15:24:51.026Z,30.90
2017-06-19T15:27:18.503Z,31.00
2017-06-19T15:29:46.004Z,31.10
2017-06-19T15:32:13.487Z,31.00
2017-06-19T15:34:40.981Z,31.00
2017-06-19T15:37:08.648Z,31.00
2017-06-19T15:39:36.370Z,30.90
2017-06-19T15:42:04.045Z,30.80
2017-06-19T15:44:31.746Z,30.90
2017-06-19T15:46:59.385Z,30.90
2017-06-19T15:49:27.033Z,30.70
2017-06-19T15:51:54.545Z,30.70
2017-06-19T15:54:22.034Z,30.70
2017-06-19T15:56:49.526Z,30.50
2017-06-19T15:59:17.001Z,30.50
2017-06-19T16:01:44.496Z,30.60
2017-06-19T16:04:11.978Z,30.60
2017-06-19T16:06:39.487Z,30.60
2017-06-19T16:09:07.731Z,30.60
2017-06-19T16:11:35.222Z,30.60
2017-06-19T16:14:03.462Z,30.70
2017-06-19T16:16:30.958Z,30.70
2017-06-19T16:18:58.454Z,30.70
2017-06-19T16:21:25.977Z,30.70
2017-06-19T16:23:53.459Z,30.90
2017-06-19T16:26:20.960Z,30.80
2017-06-19T16:28:49.203Z,30.50
2017-06-19T16:31:16.706Z,30.50
2017-06-19T16:33:44.182Z,30.40
2017-06-19T16:36:11.699Z,30.30
2017-06-19T16:38:39.947Z,30.20
2017-06-19T16:41:07.443Z,30.20
2017-06-19T16:43:34.990Z,30.10
2017-06-19T16:46:03.268Z,30.20
2017-06-19T16:48:31.506Z,30.10
2017-06-19T16:50:58.986Z,30.10
2017-06-19T16:53:26.483Z,30.10
2017-06-19T16:55:53.962Z,30.20
2017-06-19T16:58:21.462Z,30.20
2017-06-19T17:00:48.950Z,30.10
2017-06-19T17:03:16.449Z,30.00
2017-06-19T17:05:44.690Z,29.80
2017-06-19T17:08:12.178Z,29.70
2017-06-19T17:10:39.667Z,29.80
2017-06-19T17:13:07.193Z,29.90
2017-06-19T17:15:34.685Z,29.70
2017-06-19T17:18:02.187Z,29.80
2017-06-19T17:20:29.667Z,29.80
2017-06-19T17:22:57.910Z,29.70
2017-06-19T17:25:25.406Z,29.60
2017-06-19T17:27:52.890Z,29.70
2017-06-19T17:30:20.382Z,29.80
2017-06-19T17:32:47.864Z,29.80
2017-06-19T17:35:15.351Z,29.70
2017-06-19T17:37:42.830Z,29.60
2017-06-19T17:40:10.315Z,29.60
2017-06-19T17:42:37.794Z,29.50
2017-06-19T17:45:05.299Z,29.60
2017-06-19T17:47:33.560Z,29.50
2017-06-19T17:50:01.052Z,29.50
2017-06-19T17:52:29.293Z,29.40
2017-06-19T17:54:56.787Z,29.30
2017-06-19T17:57:24.263Z,29.30
2017-06-19T17:59:51.748Z,29.30
2017-06-19T18:02:19.252Z,29.20
2017-06-19T18:04:46.730Z,29.20
2017-06-19T18:07:14.235Z,29.20
2017-06-19T18:09:42.487Z,29.10
2017-06-19T18:12:09.974Z,29.10
2017-06-19T18:14:38.219Z,29.10
2017-06-19T18:17:05.710Z,29.10
2017-06-19T18:19:33.186Z,29.00
2017-06-19T18:22:00.707Z,29.00
2017-06-19T18:24:29.032Z,28.90
2017-06-19T18:26:56.509Z,28.90
2017-06-19T18:29:23.995Z,28.90
2017-06-19T18:31:52.255Z,28.80
2017-06-19T18:34:19.761Z,28.70
2017-06-19T18:36:47.243Z,28.80
2017-06-19T18:39:14.738Z,28.80
2017-06-19T18:41:42.258Z,28.70
2017-06-19T18:44:09.754Z,28.70
2017-06-19T18:46:37.233Z,28.60
2017-06-19T18:49:04.747Z,28.50
2017-06-19T18:51:33.008Z,28.60
2017-06-19T18:54:00.494Z,28.50
2017-06-19T18:56:27.975Z,28.50
2017-06-19T18:58:55.454Z,28.40
2017-06-19T19:01:22.981Z,28.40
2017-06-19T19:03:50.478Z,28.20
2017-06-19T19:06:17.975Z,28.20
2017-06-19T19:08:45.459Z,28.10
2017-06-19T19:11:12.958Z,28.10
2017-06-19T19:13:41.194Z,28.20
2017-06-19T19:16:08.694Z,28.20
2017-06-19T19:18:36.940Z,28.00
2017-06-19T19:21:04.435Z,27.90
2017-06-19T19:23:31.910Z,27.90
2017-06-19T19:25:59.418Z,27.90
2017-06-19T19:28:26.906Z,27.80
2017-06-19T19:30:54.403Z,27.70
2017-06-19T19:33:21.904Z,27.50
2017-06-19T19:35:49.386Z,27.40
2017-06-19T19:38:16.909Z,27.10
2017-06-19T19:40:44.387Z,27.00
2017-06-19T19:43:11.887Z,26.80
2017-06-19T19:45:39.363Z,26.80
2017-06-19T19:48:07.638Z,26.60
2017-06-19T19:50:35.881Z,26.50
2017-06-19T19:53:03.607Z,26.50
2017-06-19T19:55:31.097Z,26.40
2017-06-19T19:58:00.750Z,26.40
2017-06-19T20:00:28.230Z,26.30
2017-06-19T20:02:55.728Z,26.30
2017-06-19T20:05:23.975Z,26.20
2017-06-19T20:07:51.455Z,26.10
2017-06-19T20:10:18.966Z,26.20
2017-06-19T20:12:46.442Z,25.90
2017-06-19T20:15:14.556Z,25.90
2017-06-19T20:17:43.066Z,25.70
2017-06-19T20:20:10.571Z,25.60
2017-06-19T20:22:38.814Z,25.40
2017-06-19T20:25:06.307Z,25.50
2017-06-19T20:27:34.555Z,25.30
2017-06-19T20:30:02.054Z,25.30
2017-06-19T20:32:29.546Z,25.30
2017-06-19T20:34:57.044Z,25.30
2017-06-19T20:37:25.309Z,25.00
2017-06-19T20:39:52.778Z,25.00
2017-06-19T20:42:21.036Z,24.90
2017-06-19T20:44:49.278Z,24.90
2017-06-19T20:47:16.776Z,24.90
2017-06-19T20:49:45.014Z,24.70
2017-06-19T20:52:12.512Z,24.70
2017-06-19T20:54:39.997Z,24.60
2017-06-19T20:57:07.491Z,24.60
2017-06-19T20:59:34.970Z,24.60
2017-06-19T21:02:02.467Z,24.60
2017-06-19T21:04:29.950Z,24.50
2017-06-19T21:06:57.421Z,24.40
2017-06-19T21:09:25.675Z,24.40
2017-06-19T21:11:53.160Z,24.40
2017-06-19T21:14:20.666Z,24.40
2017-06-19T21:16:48.144Z,24.30
2017-06-19T21:19:15.636Z,24.20
2017-06-19T21:21:43.115Z,24.20
2017-06-19T21:24:10.602Z,24.20
2017-06-19T21:26:38.079Z,24.20
2017-06-19T21:29:06.347Z,24.10
2017-06-19T21:31:34.596Z,24.10
2017-06-19T21:34:02.087Z,24.10
2017-06-19T21:36:29.580Z,24.10
2017-06-19T21:38:57.074Z,23.90
2017-06-19T21:41:24.572Z,24.00
2017-06-19T21:43:52.044Z,23.90
2017-06-19T21:46:19.539Z,24.00
2017-06-19T21:48:47.788Z,24.00
2017-06-19T21:51:15.286Z,24.00
2017-06-19T21:53:43.532Z,24.00
2017-06-19T21:56:11.023Z,24.00
2017-06-19T21:58:38.506Z,23.90
2017-06-19T22:01:06.027Z,23.80
2017-06-19T22:03:33.511Z,23.80
2017-06-19T22:06:01.022Z,23.70
2017-06-19T22:08:29.276Z,23.60
2017-06-19T22:10:56.795Z,23.60
2017-06-19T22:13:24.284Z,23.60
2017-06-19T22:15:51.773Z,23.60
2017-06-19T22:18:19.275Z,23.50
2017-06-19T22:20:52.310Z,23.50
2017-06-19T22:23:19.824Z,23.40
2017-06-19T22:25:47.299Z,23.40
2017-06-19T22:28:14.792Z,23.30
2017-06-19T22:30:42.275Z,23.30
2017-06-19T22:33:09.773Z,23.10
2017-06-19T22:35:38.027Z,23.10
2017-06-19T22:38:05.519Z,23.10
2017-06-19T22:40:33.004Z,23.10
2017-06-19T22:43:00.497Z,23.20
2017-06-19T22:45:27.997Z,23.20
2017-06-19T22:47:55.475Z,23.10
2017-06-19T22:50:22.968Z,23.20
2017-06-19T22:52:51.202Z,23.00
2017-06-19T22:55:18.691Z,23.00
2017-06-19T22:57:46.934Z,23.00
2017-06-19T23:00:14.424Z,23.00
2017-06-19T23:02:42.674Z,23.00
2017-06-19T23:05:10.170Z,23.00
2017-06-19T23:07:37.650Z,23.00
2017-06-19T23:10:05.158Z,22.90
2017-06-19T23:12:34.136Z,22.80
2017-06-19T23:15:01.607Z,22.80
2017-06-19T23:17:29.867Z,22.70
2017-06-19T23:19:57.346Z,22.70
2017-06-19T23:22:24.835Z,22.70
2017-06-19T23:24:52.324Z,22.70
2017-06-19T23:27:19.807Z,22.60
2017-06-19T23:29:48.047Z,22.60
2017-06-19T23:32:15.543Z,22.60
2017-06-19T23:34:43.018Z,22.50
2017-06-19T23:37:10.491Z,22.50
2017-06-19T23:39:37.978Z,22.40
2017-06-19T23:42:06.224Z,22.30
2017-06-19T23:44:33.710Z,22.30
2017-06-19T23:47:01.956Z,22.20
2017-06-19T23:49:29.443Z,22.20
2017-06-19T23:51:56.932Z,22.10
2017-06-19T23:54:24.426Z,22.00
2017-06-19T23:56:51.908Z,22.00
2017-06-19T23:59:20.178Z,21.90
